• Join FlightAware (Why Join?)
  • Login
  • US Flag 
12:15AM EDT


 

Airport Tracker/Info


-or-


 

Live Flight TrackerFlight Track Log ✈ N147SW ✈ 20-Mar-2014 ✈ KPIE - KTLH

Flight Track Log - Related Links

Times and Time Zones

All times are in EDT time to prevent confusion due to time zone crossing. See the N147SW flight status page for this flight to view local times or setup timezone preferences in your user account.

Time Position Orientation Groundspeed Altitude Reporting Facility
EDT Latitude Longitude Course Direction KTS MPH feet Rate Location/Type
03:20PM 27.9167 -82.6833 336° Northwest 154 177 900  Level Tampa TRACON
03:21PM 27.9500 -82.7000 336° Northwest 197 227 1,800 2,160 Climbing Tampa TRACON
03:22PM 28.0000 -82.7667 310° West 289 333 4,200 3,120 Climbing Tampa TRACON
03:23PM 28.0667 -82.8000 336° Northwest 298 343 8,200 3,420 Climbing Tampa TRACON
03:24PM 28.1500 -82.8167 350° North 303 349 11,100 2,220 Climbing Tampa TRACON
03:27PM 28.4775 -82.9139 345° North 375 432 18,200 1,980 Climbing Jacksonville Center
03:28PM 28.5714 -82.9281 352° North 360 414 19,900 900 Climbing Jacksonville Center
03:29PM 28.6800 -82.9447 352° North 360 414 20,000  Climbing Jacksonville Center
03:30PM 28.7781 -82.9992 334° Northwest 383 441 20,000  Level Jacksonville Center
03:31PM 28.8719 -83.0775 324° Northwest 388 447 20,000  Level Jacksonville Center
03:32PM 28.9678 -83.1583 324° Northwest 412 474 20,000  Level Jacksonville Center
03:33PM 29.0636 -83.2394 324° Northwest 424 488 20,000  Level Jacksonville Center
03:34PM 29.1614 -83.3158 326° Northwest 429 494 20,000  Level Jacksonville Center
03:35PM 29.2550 -83.3947 324° Northwest 429 494 20,000  Level Jacksonville Center
03:36PM 29.3508 -83.4764 323° Northwest 429 494 20,000 -600 Level Jacksonville Center
03:37PM 29.4464 -83.5556 324° Northwest 429 494 18,800 -1,680 Descending Jacksonville Center
03:38PM 29.5358 -83.6303 324° Northwest 418 481 16,700 -2,160 Descending Jacksonville Center
03:39PM 29.6250 -83.7025 325° Northwest 405 466 14,500 -2,280 Descending Jacksonville Center
03:40PM 29.7144 -83.7797 323° Northwest 399 459 12,200 -1,800 Descending Jacksonville Center
03:41PM 29.8014 -83.8500 325° Northwest 394 453 11,000 -600 Descending Jacksonville Center
03:42PM 29.8908 -83.9250 324° Northwest 394 453 11,000 -840 Level Jacksonville Center
03:43PM 29.9778 -83.9981 324° Northwest 394 453 9,400 -1,800 Descending Jacksonville Center
03:44PM 30.0564 -84.0661 323° Northwest 382 440 7,500 -1,920 Descending Jacksonville Center
03:45PM 30.1186 -84.1317 318° Northwest 346 398 5,600 -1,920 Descending Jacksonville Center
03:46PM 30.1828 -84.1903 322° Northwest 310 357 3,700 -1,440 Descending Jacksonville Center
03:47PM 30.2406 -84.2461 320° Northwest 293 337 2,800 -900 Descending Jacksonville Center